< < Back
Terminal Aerodrome Forecast


Current Version              Previous Versions:   1  2  3  4  5  6  7  8  9  

Terminal Aerodrome Forecast

749
FTUS42 KGSP 231124
TAFCLT
TAF
KCLT 231124Z 2312/2412 03003KT P6SM FEW250
     FM231700 14006KT P6SM FEW250=

Latest METAR

417
SAUS70 KWBC 231600 RRE
MTRCLT
METAR KCLT 231552Z VRB04G14KT 10SM FEW250 24/03 A3043 RMK AO2 SLP299
T02440033 $


USA.gov is the U.S. government's official web portal to all federal, state and local government web resources and services.